Helen Parker — WDC6715 — position and weather

sailwx.info

Track history (hours):
 
Tides and Currents Weather Stations Pressure Air Temp Water Temp Dewpoint Dewpoint Depression Visibility Wind Speed Wind Dir Waves Ship Positions

Helen Parker

Owner: Brewster Marine LLC, Forked River, NJ. More information available from US FCC via Universal Licensing System and Coast Guard Vessel Documentation Center.

Last reported at 2018-Jan-22 19:12 UTC. Time now 2018-Jan-23 03:45 UTC.
Position N 40°39' W 074°10'.

Length 14 m.

Type: Other ship. MMSI: 367060270.

Date/timePositionNaut miles runAvg speedWind from/ knotsBaromVisibWave heightAir tempDewpointWater temp
2018-Jan-22 19:12N 40°39' W 074°10'0 0.9
2018-Jan-22 19:00N 40°39' W 074°10'1 1.9
2018-Jan-22 18:31N 40°39' W 074°11'3 5.6
2018-Jan-22 18:00N 40°39' W 074°08'4 6.7
2018-Jan-22 17:29N 40°40' W 074°04'3 6.1
2018-Jan-22 17:00N 40°43' W 074°01'2 4.7
2018-Jan-22 16:31N 40°43' W 073°58'0 0.1
2018-Jan-22 16:01N 40°43' W 073°58'0 0.8
2018-Jan-22 15:31N 40°42' W 073°59'1 2.6
2018-Jan-22 15:01N 40°42' W 074°00'3 5.4
2018-Jan-22 14:30N 40°40' W 074°03'2 4.5
2018-Jan-22 14:00N 40°39' W 074°05'2 3.8
2018-Jan-22 13:30N 40°39' W 074°08'2 4.4
2018-Jan-22 13:00N 40°39' W 074°11'1 1.2
2018-Jan-22 12:30N 40°39' W 074°11'  
Track history (hours):
 
Tides and Currents Weather Stations Pressure Air Temp Water Temp Dewpoint Dewpoint Depression Visibility Wind Speed Wind Dir Waves Ship Positions

Helen Parker

Owner: Brewster Marine LLC, Forked River, NJ. More information available from US FCC via Universal Licensing System and Coast Guard Vessel Documentation Center.

Last reported at 2018-Jan-22 19:12 UTC. Time now 2018-Jan-23 03:45 UTC.
Position N 40°39' W 074°10'.

Length 14 m.

Type: Other ship. MMSI: 367060270.

Date/timePositionNaut miles runAvg speedWind from/ knotsBaromVisibWave heightAir tempDewpointWater temp
2018-Jan-22 19:12N 40°39' W 074°10'0 0.9
2018-Jan-22 19:00N 40°39' W 074°10'1 1.9
2018-Jan-22 18:31N 40°39' W 074°11'3 5.6
2018-Jan-22 18:00N 40°39' W 074°08'4 6.7
2018-Jan-22 17:29N 40°40' W 074°04'3 6.1
2018-Jan-22 17:00N 40°43' W 074°01'2 4.7
2018-Jan-22 16:31N 40°43' W 073°58'0 0.1
2018-Jan-22 16:01N 40°43' W 073°58'0 0.8
2018-Jan-22 15:31N 40°42' W 073°59'1 2.6
2018-Jan-22 15:01N 40°42' W 074°00'3 5.4
2018-Jan-22 14:30N 40°40' W 074°03'2 4.5
2018-Jan-22 14:00N 40°39' W 074°05'2 3.8
2018-Jan-22 13:30N 40°39' W 074°08'2 4.4
2018-Jan-22 13:00N 40°39' W 074°11'1 1.2
2018-Jan-22 12:30N 40°39' W 074°11'  

Dump ship's entire track history